sensor_id;sensor_type;location;lat;lon;timestamp;P1;durP1;ratioP1;P2;durP2;ratioP2
18320;SDS011;54904;54.350;18.664;2022-10-17T00:00:38;0.90;;;0.90;;
18320;SDS011;54904;54.350;18.664;2022-10-17T00:03:05;1.08;;;1.08;;
18320;SDS011;54904;54.350;18.664;2022-10-17T00:05:32;0.90;;;0.90;;
18320;SDS011;54904;54.350;18.664;2022-10-17T00:08:00;0.93;;;0.93;;
18320;SDS011;54904;54.350;18.664;2022-10-17T00:10:27;1.43;;;1.40;;
18320;SDS011;54904;54.350;18.664;2022-10-17T00:12:54;1.50;;;1.40;;
18320;SDS011;54904;54.350;18.664;2022-10-17T00:15:23;1.53;;;1.20;;
18320;SDS011;54904;54.350;18.664;2022-10-17T00:17:50;1.17;;;1.10;;
18320;SDS011;54904;54.350;18.664;2022-10-17T00:20:17;1.40;;;1.30;;
18320;SDS011;54904;54.350;18.664;2022-10-17T00:22:44;1.30;;;1.20;;
18320;SDS011;54904;54.350;18.664;2022-10-17T00:25:11;1.10;;;1.10;;
18320;SDS011;54904;54.350;18.664;2022-10-17T00:27:39;1.30;;;1.20;;
18320;SDS011;54904;54.350;18.664;2022-10-17T00:30:09;1.33;;;1.23;;
18320;SDS011;54904;54.350;18.664;2022-10-17T00:32:39;1.40;;;1.40;;
18320;SDS011;54904;54.350;18.664;2022-10-17T00:35:07;1.60;;;1.50;;
18320;SDS011;54904;54.350;18.664;2022-10-17T00:37:34;1.40;;;1.30;;
18320;SDS011;54904;54.350;18.664;2022-10-17T00:40:02;1.13;;;1.13;;
18320;SDS011;54904;54.350;18.664;2022-10-17T00:42:30;1.50;;;1.40;;
18320;SDS011;54904;54.350;18.664;2022-10-17T00:44:59;1.10;;;1.10;;
18320;SDS011;54904;54.350;18.664;2022-10-17T00:47:31;1.60;;;1.30;;
18320;SDS011;54904;54.350;18.664;2022-10-17T00:50:02;1.17;;;1.17;;
18320;SDS011;54904;54.350;18.664;2022-10-17T00:52:31;1.42;;;1.13;;
18320;SDS011;54904;54.350;18.664;2022-10-17T00:55:00;1.30;;;1.25;;
18320;SDS011;54904;54.350;18.664;2022-10-17T00:57:31;1.83;;;1.03;;
18320;SDS011;54904;54.350;18.664;2022-10-17T00:59:58;3.90;;;1.30;;
18320;SDS011;54904;54.350;18.664;2022-10-17T01:02:28;1.20;;;1.20;;
18320;SDS011;54904;54.350;18.664;2022-10-17T01:04:55;1.10;;;1.10;;
18320;SDS011;54904;54.350;18.664;2022-10-17T01:07:26;1.53;;;1.43;;
18320;SDS011;54904;54.350;18.664;2022-10-17T01:09:54;1.25;;;1.20;;
18320;SDS011;54904;54.350;18.664;2022-10-17T01:12:23;1.27;;;1.20;;
18320;SDS011;54904;54.350;18.664;2022-10-17T01:17:39;1.63;;;1.47;;
18320;SDS011;54904;54.350;18.664;2022-10-17T01:23:34;1.50;;;1.40;;
18320;SDS011;54904;54.350;18.664;2022-10-17T01:26:30;1.43;;;1.33;;
18320;SDS011;54904;54.350;18.664;2022-10-17T01:29:14;1.70;;;1.60;;
18320;SDS011;54904;54.350;18.664;2022-10-17T01:32:07;1.40;;;1.30;;
18320;SDS011;54904;54.350;18.664;2022-10-17T01:34:42;1.65;;;1.55;;
18320;SDS011;54904;54.350;18.664;2022-10-17T01:37:14;2.05;;;1.60;;
18320;SDS011;54904;54.350;18.664;2022-10-17T01:39:47;1.67;;;1.58;;
18320;SDS011;54904;54.350;18.664;2022-10-17T01:42:18;1.70;;;1.60;;
18320;SDS011;54904;54.350;18.664;2022-10-17T01:44:52;1.57;;;1.47;;
18320;SDS011;54904;54.350;18.664;2022-10-17T01:47:25;1.50;;;1.40;;
18320;SDS011;54904;54.350;18.664;2022-10-17T01:49:55;1.73;;;1.50;;
18320;SDS011;54904;54.350;18.664;2022-10-17T01:52:25;1.77;;;1.67;;
18320;SDS011;54904;54.350;18.664;2022-10-17T01:54:56;1.67;;;1.57;;
18320;SDS011;54904;54.350;18.664;2022-10-17T01:57:30;1.43;;;1.33;;
18320;SDS011;54904;54.350;18.664;2022-10-17T02:00:02;1.13;;;1.13;;
18320;SDS011;54904;54.350;18.664;2022-10-17T02:02:39;1.50;;;1.40;;
18320;SDS011;54904;54.350;18.664;2022-10-17T02:05:09;1.80;;;1.70;;
18320;SDS011;54904;54.350;18.664;2022-10-17T02:07:36;1.35;;;1.25;;
18320;SDS011;54904;54.350;18.664;2022-10-17T02:10:08;1.60;;;1.50;;
18320;SDS011;54904;54.350;18.664;2022-10-17T02:12:44;1.40;;;1.30;;
18320;SDS011;54904;54.350;18.664;2022-10-17T02:15:23;2.10;;;1.80;;
18320;SDS011;54904;54.350;18.664;2022-10-17T02:18:09;2.17;;;2.07;;
18320;SDS011;54904;54.350;18.664;2022-10-17T02:20:48;2.27;;;1.83;;
18320;SDS011;54904;54.350;18.664;2022-10-17T02:23:22;2.20;;;2.00;;
18320;SDS011;54904;54.350;18.664;2022-10-17T02:25:57;1.80;;;1.70;;
18320;SDS011;54904;54.350;18.664;2022-10-17T02:28:32;1.40;;;1.30;;
18320;SDS011;54904;54.350;18.664;2022-10-17T02:31:12;1.10;;;1.10;;
18320;SDS011;54904;54.350;18.664;2022-10-17T02:33:45;1.50;;;1.40;;
18320;SDS011;54904;54.350;18.664;2022-10-17T02:36:18;2.27;;;1.37;;
18320;SDS011;54904;54.350;18.664;2022-10-17T02:38:47;2.43;;;1.30;;
18320;SDS011;54904;54.350;18.664;2022-10-17T02:41:17;2.40;;;1.30;;
18320;SDS011;54904;54.350;18.664;2022-10-17T02:43:45;1.60;;;1.50;;
18320;SDS011;54904;54.350;18.664;2022-10-17T02:46:14;3.30;;;2.17;;
18320;SDS011;54904;54.350;18.664;2022-10-17T02:48:49;4.60;;;2.53;;
18320;SDS011;54904;54.350;18.664;2022-10-17T02:51:20;2.33;;;2.13;;
18320;SDS011;54904;54.350;18.664;2022-10-17T02:53:56;2.40;;;2.20;;
18320;SDS011;54904;54.350;18.664;2022-10-17T02:56:34;2.20;;;2.00;;
18320;SDS011;54904;54.350;18.664;2022-10-17T02:59:07;1.60;;;1.50;;
18320;SDS011;54904;54.350;18.664;2022-10-17T03:01:37;1.53;;;1.43;;
18320;SDS011;54904;54.350;18.664;2022-10-17T03:04:07;1.87;;;1.60;;
18320;SDS011;54904;54.350;18.664;2022-10-17T03:06:36;1.57;;;1.47;;
18320;SDS011;54904;54.350;18.664;2022-10-17T03:09:03;1.47;;;1.37;;
18320;SDS011;54904;54.350;18.664;2022-10-17T03:11:31;1.93;;;1.83;;
18320;SDS011;54904;54.350;18.664;2022-10-17T03:13:59;2.10;;;1.90;;
18320;SDS011;54904;54.350;18.664;2022-10-17T03:16:27;2.10;;;1.90;;
18320;SDS011;54904;54.350;18.664;2022-10-17T03:18:54;1.70;;;1.60;;
18320;SDS011;54904;54.350;18.664;2022-10-17T03:21:23;2.40;;;2.20;;
18320;SDS011;54904;54.350;18.664;2022-10-17T03:23:50;3.67;;;2.40;;
18320;SDS011;54904;54.350;18.664;2022-10-17T03:26:20;3.10;;;2.37;;
18320;SDS011;54904;54.350;18.664;2022-10-17T03:28:47;4.07;;;2.80;;
18320;SDS011;54904;54.350;18.664;2022-10-17T03:31:15;2.53;;;2.33;;
18320;SDS011;54904;54.350;18.664;2022-10-17T03:33:44;2.77;;;2.30;;
18320;SDS011;54904;54.350;18.664;2022-10-17T03:36:12;2.50;;;2.30;;
18320;SDS011;54904;54.350;18.664;2022-10-17T03:38:42;1.97;;;1.87;;
18320;SDS011;54904;54.350;18.664;2022-10-17T03:41:10;2.20;;;2.00;;
18320;SDS011;54904;54.350;18.664;2022-10-17T03:43:38;1.93;;;1.70;;
18320;SDS011;54904;54.350;18.664;2022-10-17T03:46:06;2.00;;;1.80;;
18320;SDS011;54904;54.350;18.664;2022-10-17T03:48:35;1.83;;;1.73;;
18320;SDS011;54904;54.350;18.664;2022-10-17T03:51:03;1.77;;;1.67;;
18320;SDS011;54904;54.350;18.664;2022-10-17T03:53:36;2.00;;;1.90;;
18320;SDS011;54904;54.350;18.664;2022-10-17T03:56:09;2.10;;;1.90;;
18320;SDS011;54904;54.350;18.664;2022-10-17T03:58:38;2.63;;;2.00;;
18320;SDS011;54904;54.350;18.664;2022-10-17T04:01:06;3.43;;;2.10;;
18320;SDS011;54904;54.350;18.664;2022-10-17T04:03:35;2.10;;;1.90;;
18320;SDS011;54904;54.350;18.664;2022-10-17T04:06:03;4.37;;;3.07;;
18320;SDS011;54904;54.350;18.664;2022-10-17T04:08:34;4.10;;;2.90;;
18320;SDS011;54904;54.350;18.664;2022-10-17T04:11:10;3.57;;;2.70;;
18320;SDS011;54904;54.350;18.664;2022-10-17T04:13:41;5.10;;;3.27;;
18320;SDS011;54904;54.350;18.664;2022-10-17T04:16:09;3.13;;;2.83;;
18320;SDS011;54904;54.350;18.664;2022-10-17T04:18:51;7.40;;;4.43;;
18320;SDS011;54904;54.350;18.664;2022-10-17T04:21:21;6.03;;;4.30;;
18320;SDS011;54904;54.350;18.664;2022-10-17T04:23:51;5.53;;;4.60;;
18320;SDS011;54904;54.350;18.664;2022-10-17T04:26:34;4.60;;;3.43;;
18320;SDS011;54904;54.350;18.664;2022-10-17T04:29:01;3.27;;;2.97;;
18320;SDS011;54904;54.350;18.664;2022-10-17T04:31:29;3.50;;;3.00;;
18320;SDS011;54904;54.350;18.664;2022-10-17T04:34:17;3.10;;;2.90;;
18320;SDS011;54904;54.350;18.664;2022-10-17T04:36:45;4.57;;;3.10;;
18320;SDS011;54904;54.350;18.664;2022-10-17T04:39:12;2.83;;;2.63;;
18320;SDS011;54904;54.350;18.664;2022-10-17T04:41:41;2.70;;;2.37;;
18320;SDS011;54904;54.350;18.664;2022-10-17T04:44:08;3.20;;;3.00;;
18320;SDS011;54904;54.350;18.664;2022-10-17T04:46:40;6.07;;;5.10;;
18320;SDS011;54904;54.350;18.664;2022-10-17T04:49:07;5.97;;;4.00;;
18320;SDS011;54904;54.350;18.664;2022-10-17T04:51:38;5.53;;;3.57;;
18320;SDS011;54904;54.350;18.664;2022-10-17T04:54:14;3.30;;;2.80;;
18320;SDS011;54904;54.350;18.664;2022-10-17T04:56:46;2.70;;;2.50;;
18320;SDS011;54904;54.350;18.664;2022-10-17T04:59:14;2.10;;;2.00;;
18320;SDS011;54904;54.350;18.664;2022-10-17T05:01:47;2.00;;;1.90;;
18320;SDS011;54904;54.350;18.664;2022-10-17T05:04:16;1.87;;;1.77;;
18320;SDS011;54904;54.350;18.664;2022-10-17T05:06:44;1.63;;;1.53;;
18320;SDS011;54904;54.350;18.664;2022-10-17T05:09:29;1.70;;;1.60;;
18320;SDS011;54904;54.350;18.664;2022-10-17T05:11:58;1.70;;;1.60;;
18320;SDS011;54904;54.350;18.664;2022-10-17T05:14:26;1.40;;;1.30;;
18320;SDS011;54904;54.350;18.664;2022-10-17T05:16:53;1.80;;;1.70;;
18320;SDS011;54904;54.350;18.664;2022-10-17T05:19:20;3.23;;;2.93;;
18320;SDS011;54904;54.350;18.664;2022-10-17T05:21:49;2.63;;;1.93;;
18320;SDS011;54904;54.350;18.664;2022-10-17T05:24:16;1.97;;;1.87;;
18320;SDS011;54904;54.350;18.664;2022-10-17T05:26:44;1.87;;;1.70;;
18320;SDS011;54904;54.350;18.664;2022-10-17T05:29:12;1.63;;;1.53;;
18320;SDS011;54904;54.350;18.664;2022-10-17T05:31:44;1.50;;;1.40;;
18320;SDS011;54904;54.350;18.664;2022-10-17T05:34:12;2.03;;;1.80;;
18320;SDS011;54904;54.350;18.664;2022-10-17T05:36:39;2.60;;;1.53;;
18320;SDS011;54904;54.350;18.664;2022-10-17T05:39:07;1.67;;;1.57;;
18320;SDS011;54904;54.350;18.664;2022-10-17T05:41:36;1.40;;;1.30;;
18320;SDS011;54904;54.350;18.664;2022-10-17T05:44:03;1.57;;;1.47;;
18320;SDS011;54904;54.350;18.664;2022-10-17T05:46:40;3.13;;;1.40;;
18320;SDS011;54904;54.350;18.664;2022-10-17T05:49:08;1.70;;;1.60;;
18320;SDS011;54904;54.350;18.664;2022-10-17T05:51:36;2.40;;;1.57;;
18320;SDS011;54904;54.350;18.664;2022-10-17T05:54:04;1.90;;;1.70;;
18320;SDS011;54904;54.350;18.664;2022-10-17T05:56:32;1.80;;;1.70;;
18320;SDS011;54904;54.350;18.664;2022-10-17T05:59:00;2.63;;;1.50;;
18320;SDS011;54904;54.350;18.664;2022-10-17T06:01:41;1.77;;;1.63;;
18320;SDS011;54904;54.350;18.664;2022-10-17T06:04:09;1.40;;;1.30;;
18320;SDS011;54904;54.350;18.664;2022-10-17T06:06:36;1.30;;;1.20;;
18320;SDS011;54904;54.350;18.664;2022-10-17T06:09:05;1.30;;;1.20;;
18320;SDS011;54904;54.350;18.664;2022-10-17T06:11:36;3.03;;;2.60;;
18320;SDS011;54904;54.350;18.664;2022-10-17T06:14:05;7.27;;;3.40;;
18320;SDS011;54904;54.350;18.664;2022-10-17T06:16:33;5.33;;;3.33;;
18320;SDS011;54904;54.350;18.664;2022-10-17T06:19:02;6.37;;;2.90;;
18320;SDS011;54904;54.350;18.664;2022-10-17T06:21:30;3.00;;;2.70;;
18320;SDS011;54904;54.350;18.664;2022-10-17T06:24:10;6.43;;;3.80;;
18320;SDS011;54904;54.350;18.664;2022-10-17T06:26:40;6.07;;;4.00;;
18320;SDS011;54904;54.350;18.664;2022-10-17T06:29:09;7.93;;;4.63;;
18320;SDS011;54904;54.350;18.664;2022-10-17T06:31:42;5.47;;;3.73;;
18320;SDS011;54904;54.350;18.664;2022-10-17T06:34:10;4.83;;;4.07;;
18320;SDS011;54904;54.350;18.664;2022-10-17T06:36:39;3.90;;;3.50;;
18320;SDS011;54904;54.350;18.664;2022-10-17T06:39:07;5.53;;;3.60;;
18320;SDS011;54904;54.350;18.664;2022-10-17T06:41:39;3.20;;;3.00;;
18320;SDS011;54904;54.350;18.664;2022-10-17T06:44:09;3.37;;;3.07;;
18320;SDS011;54904;54.350;18.664;2022-10-17T06:47:08;3.30;;;3.00;;
18320;SDS011;54904;54.350;18.664;2022-10-17T06:49:37;3.73;;;2.90;;
18320;SDS011;54904;54.350;18.664;2022-10-17T06:52:22;4.87;;;2.87;;
18320;SDS011;54904;54.350;18.664;2022-10-17T06:55:10;4.30;;;3.47;;
18320;SDS011;54904;54.350;18.664;2022-10-17T06:57:53;5.67;;;3.80;;
18320;SDS011;54904;54.350;18.664;2022-10-17T07:00:41;5.40;;;3.80;;
18320;SDS011;54904;54.350;18.664;2022-10-17T07:03:10;8.70;;;4.40;;
18320;SDS011;54904;54.350;18.664;2022-10-17T07:05:39;11.03;;;4.67;;
18320;SDS011;54904;54.350;18.664;2022-10-17T07:08:06;8.73;;;4.93;;
18320;SDS011;54904;54.350;18.664;2022-10-17T07:10:36;11.50;;;4.47;;
18320;SDS011;54904;54.350;18.664;2022-10-17T07:13:06;6.83;;;3.87;;
18320;SDS011;54904;54.350;18.664;2022-10-17T07:15:35;4.13;;;3.23;;
18320;SDS011;54904;54.350;18.664;2022-10-17T07:18:02;3.83;;;3.50;;
18320;SDS011;54904;54.350;18.664;2022-10-17T07:20:30;4.17;;;3.53;;
18320;SDS011;54904;54.350;18.664;2022-10-17T07:22:58;8.03;;;4.20;;
18320;SDS011;54904;54.350;18.664;2022-10-17T07:25:26;4.90;;;3.23;;
18320;SDS011;54904;54.350;18.664;2022-10-17T07:27:58;4.73;;;3.23;;
18320;SDS011;54904;54.350;18.664;2022-10-17T07:30:27;2.63;;;2.43;;
18320;SDS011;54904;54.350;18.664;2022-10-17T07:33:05;2.73;;;2.50;;
18320;SDS011;54904;54.350;18.664;2022-10-17T07:35:33;5.17;;;3.10;;
18320;SDS011;54904;54.350;18.664;2022-10-17T07:38:02;4.43;;;2.67;;
18320;SDS011;54904;54.350;18.664;2022-10-17T07:40:29;3.80;;;2.80;;
18320;SDS011;54904;54.350;18.664;2022-10-17T07:42:56;4.93;;;2.30;;
18320;SDS011;54904;54.350;18.664;2022-10-17T07:45:24;4.83;;;3.17;;
18320;SDS011;54904;54.350;18.664;2022-10-17T07:47:54;5.80;;;3.43;;
18320;SDS011;54904;54.350;18.664;2022-10-17T07:50:22;6.17;;;3.40;;
18320;SDS011;54904;54.350;18.664;2022-10-17T07:52:49;3.97;;;2.90;;
18320;SDS011;54904;54.350;18.664;2022-10-17T07:55:17;6.33;;;3.53;;
18320;SDS011;54904;54.350;18.664;2022-10-17T07:57:45;5.40;;;3.37;;
18320;SDS011;54904;54.350;18.664;2022-10-17T08:00:12;5.00;;;3.20;;
18320;SDS011;54904;54.350;18.664;2022-10-17T08:02:39;5.00;;;3.50;;
18320;SDS011;54904;54.350;18.664;2022-10-17T08:05:07;6.07;;;4.07;;
18320;SDS011;54904;54.350;18.664;2022-10-17T08:07:34;5.77;;;3.80;;
18320;SDS011;54904;54.350;18.664;2022-10-17T08:10:01;8.30;;;4.43;;
18320;SDS011;54904;54.350;18.664;2022-10-17T08:12:31;20.83;;;4.57;;
18320;SDS011;54904;54.350;18.664;2022-10-17T08:14:58;28.00;;;5.67;;
18320;SDS011;54904;54.350;18.664;2022-10-17T08:17:26;16.87;;;5.63;;
18320;SDS011;54904;54.350;18.664;2022-10-17T08:19:53;7.37;;;3.90;;
18320;SDS011;54904;54.350;18.664;2022-10-17T08:22:20;5.23;;;3.30;;
18320;SDS011;54904;54.350;18.664;2022-10-17T08:24:47;5.10;;;3.53;;
18320;SDS011;54904;54.350;18.664;2022-10-17T08:27:14;5.60;;;3.63;;
18320;SDS011;54904;54.350;18.664;2022-10-17T08:29:49;7.80;;;3.90;;
18320;SDS011;54904;54.350;18.664;2022-10-17T08:32:18;5.57;;;3.50;;
18320;SDS011;54904;54.350;18.664;2022-10-17T08:34:45;3.60;;;3.30;;
18320;SDS011;54904;54.350;18.664;2022-10-17T08:37:12;4.93;;;3.33;;
18320;SDS011;54904;54.350;18.664;2022-10-17T08:39:39;5.13;;;3.70;;
18320;SDS011;54904;54.350;18.664;2022-10-17T08:42:20;4.27;;;3.30;;
18320;SDS011;54904;54.350;18.664;2022-10-17T08:44:59;4.17;;;3.40;;
18320;SDS011;54904;54.350;18.664;2022-10-17T08:47:37;3.57;;;3.10;;
18320;SDS011;54904;54.350;18.664;2022-10-17T08:50:08;6.23;;;3.70;;
18320;SDS011;54904;54.350;18.664;2022-10-17T08:52:40;3.63;;;2.93;;
18320;SDS011;54904;54.350;18.664;2022-10-17T08:55:12;2.83;;;2.57;;
18320;SDS011;54904;54.350;18.664;2022-10-17T08:57:41;2.70;;;1.93;;
18320;SDS011;54904;54.350;18.664;2022-10-17T09:00:13;2.07;;;1.87;;
18320;SDS011;54904;54.350;18.664;2022-10-17T09:02:47;1.60;;;1.50;;
18320;SDS011;54904;54.350;18.664;2022-10-17T09:05:33;2.00;;;1.47;;
18320;SDS011;54904;54.350;18.664;2022-10-17T09:08:17;4.13;;;1.90;;
18320;SDS011;54904;54.350;18.664;2022-10-17T09:10:55;5.47;;;2.50;;
18320;SDS011;54904;54.350;18.664;2022-10-17T09:13:36;7.87;;;2.50;;
18320;SDS011;54904;54.350;18.664;2022-10-17T09:16:17;4.87;;;2.60;;
18320;SDS011;54904;54.350;18.664;2022-10-17T09:18:57;3.37;;;2.80;;
18320;SDS011;54904;54.350;18.664;2022-10-17T09:21:32;5.20;;;2.80;;
18320;SDS011;54904;54.350;18.664;2022-10-17T09:24:09;5.43;;;3.33;;
18320;SDS011;54904;54.350;18.664;2022-10-17T09:26:40;3.23;;;2.93;;
18320;SDS011;54904;54.350;18.664;2022-10-17T09:29:13;4.40;;;3.33;;
18320;SDS011;54904;54.350;18.664;2022-10-17T09:31:46;4.00;;;3.07;;
18320;SDS011;54904;54.350;18.664;2022-10-17T09:34:19;7.27;;;4.77;;
18320;SDS011;54904;54.350;18.664;2022-10-17T09:36:48;4.30;;;3.90;;
18320;SDS011;54904;54.350;18.664;2022-10-17T09:39:15;7.33;;;3.67;;
18320;SDS011;54904;54.350;18.664;2022-10-17T09:41:46;4.80;;;4.27;;
18320;SDS011;54904;54.350;18.664;2022-10-17T09:44:20;5.47;;;4.43;;
18320;SDS011;54904;54.350;18.664;2022-10-17T09:47:00;7.27;;;4.90;;
18320;SDS011;54904;54.350;18.664;2022-10-17T09:49:37;5.37;;;4.10;;
18320;SDS011;54904;54.350;18.664;2022-10-17T09:52:08;4.73;;;3.90;;
18320;SDS011;54904;54.350;18.664;2022-10-17T09:54:41;4.03;;;3.67;;
18320;SDS011;54904;54.350;18.664;2022-10-17T09:57:11;4.03;;;3.30;;
18320;SDS011;54904;54.350;18.664;2022-10-17T09:59:40;6.30;;;4.43;;
18320;SDS011;54904;54.350;18.664;2022-10-17T10:02:16;4.30;;;3.50;;
18320;SDS011;54904;54.350;18.664;2022-10-17T10:04:52;3.10;;;2.78;;
18320;SDS011;54904;54.350;18.664;2022-10-17T10:07:24;4.22;;;3.65;;
18320;SDS011;54904;54.350;18.664;2022-10-17T10:09:53;7.60;;;4.00;;
18320;SDS011;54904;54.350;18.664;2022-10-17T10:12:21;4.27;;;3.90;;
18320;SDS011;54904;54.350;18.664;2022-10-17T10:14:51;7.55;;;4.47;;
18320;SDS011;54904;54.350;18.664;2022-10-17T10:17:28;8.80;;;4.40;;
18320;SDS011;54904;54.350;18.664;2022-10-17T10:23:04;5.22;;;3.88;;
18320;SDS011;54904;54.350;18.664;2022-10-17T10:25:33;6.07;;;4.47;;
18320;SDS011;54904;54.350;18.664;2022-10-17T10:28:02;3.95;;;3.65;;
18320;SDS011;54904;54.350;18.664;2022-10-17T10:30:36;3.70;;;3.35;;
18320;SDS011;54904;54.350;18.664;2022-10-17T10:33:04;3.67;;;2.80;;
18320;SDS011;54904;54.350;18.664;2022-10-17T10:35:36;16.98;;;4.63;;
18320;SDS011;54904;54.350;18.664;2022-10-17T10:38:07;7.28;;;4.25;;
18320;SDS011;54904;54.350;18.664;2022-10-17T10:40:43;7.05;;;4.20;;
18320;SDS011;54904;54.350;18.664;2022-10-17T10:43:19;7.60;;;4.45;;
18320;SDS011;54904;54.350;18.664;2022-10-17T10:45:49;5.47;;;4.20;;
18320;SDS011;54904;54.350;18.664;2022-10-17T10:48:20;6.28;;;4.20;;
18320;SDS011;54904;54.350;18.664;2022-10-17T10:50:48;5.07;;;4.57;;
18320;SDS011;54904;54.350;18.664;2022-10-17T10:53:26;5.28;;;4.25;;
18320;SDS011;54904;54.350;18.664;2022-10-17T10:55:59;4.15;;;3.75;;
18320;SDS011;54904;54.350;18.664;2022-10-17T10:58:33;4.15;;;3.75;;
18320;SDS011;54904;54.350;18.664;2022-10-17T11:01:08;3.58;;;3.28;;
18320;SDS011;54904;54.350;18.664;2022-10-17T11:03:53;7.85;;;4.57;;
18320;SDS011;54904;54.350;18.664;2022-10-17T11:06:33;4.10;;;3.70;;
18320;SDS011;54904;54.350;18.664;2022-10-17T11:09:06;6.00;;;5.10;;
18320;SDS011;54904;54.350;18.664;2022-10-17T11:11:46;6.00;;;3.50;;
18320;SDS011;54904;54.350;18.664;2022-10-17T11:14:31;4.35;;;3.80;;
18320;SDS011;54904;54.350;18.664;2022-10-17T11:17:04;7.03;;;4.50;;
18320;SDS011;54904;54.350;18.664;2022-10-17T11:19:40;5.95;;;5.10;;
18320;SDS011;54904;54.350;18.664;2022-10-17T11:22:12;5.97;;;5.28;;
18320;SDS011;54904;54.350;18.664;2022-10-17T11:24:43;7.38;;;5.60;;
18320;SDS011;54904;54.350;18.664;2022-10-17T11:27:21;3.42;;;3.13;;
18320;SDS011;54904;54.350;18.664;2022-10-17T11:29:48;2.78;;;2.58;;
18320;SDS011;54904;54.350;18.664;2022-10-17T11:32:18;3.60;;;3.25;;
18320;SDS011;54904;54.350;18.664;2022-10-17T11:34:52;5.60;;;3.60;;
18320;SDS011;54904;54.350;18.664;2022-10-17T11:37:24;8.10;;;4.70;;
18320;SDS011;54904;54.350;18.664;2022-10-17T11:39:55;5.57;;;4.38;;
18320;SDS011;54904;54.350;18.664;2022-10-17T11:42:28;6.20;;;4.40;;
18320;SDS011;54904;54.350;18.664;2022-10-17T11:45:00;5.18;;;4.43;;
18320;SDS011;54904;54.350;18.664;2022-10-17T11:47:34;4.25;;;3.38;;
18320;SDS011;54904;54.350;18.664;2022-10-17T11:50:10;8.45;;;5.75;;
18320;SDS011;54904;54.350;18.664;2022-10-17T11:52:46;4.25;;;3.85;;
18320;SDS011;54904;54.350;18.664;2022-10-17T11:55:18;4.43;;;3.30;;
18320;SDS011;54904;54.350;18.664;2022-10-17T11:57:50;5.93;;;4.25;;
18320;SDS011;54904;54.350;18.664;2022-10-17T12:00:28;3.55;;;3.25;;
18320;SDS011;54904;54.350;18.664;2022-10-17T12:03:06;3.60;;;3.30;;
18320;SDS011;54904;54.350;18.664;2022-10-17T12:05:46;6.20;;;3.95;;
18320;SDS011;54904;54.350;18.664;2022-10-17T12:08:19;4.00;;;3.38;;
18320;SDS011;54904;54.350;18.664;2022-10-17T12:10:51;6.13;;;5.10;;
18320;SDS011;54904;54.350;18.664;2022-10-17T12:22:11;4.25;;;3.85;;
18320;SDS011;54904;54.350;18.664;2022-10-17T12:24:51;5.68;;;4.47;;
18320;SDS011;54904;54.350;18.664;2022-10-17T12:27:37;5.07;;;4.03;;
18320;SDS011;54904;54.350;18.664;2022-10-17T12:32:59;5.53;;;4.68;;
18320;SDS011;54904;54.350;18.664;2022-10-17T12:35:30;9.10;;;6.10;;
18320;SDS011;54904;54.350;18.664;2022-10-17T12:40:51;6.68;;;4.80;;
18320;SDS011;54904;54.350;18.664;2022-10-17T12:52:20;5.80;;;5.18;;
18320;SDS011;54904;54.350;18.664;2022-10-17T12:57:39;6.88;;;5.53;;
18320;SDS011;54904;54.350;18.664;2022-10-17T13:00:14;7.22;;;5.70;;
18320;SDS011;54904;54.350;18.664;2022-10-17T13:02:44;7.22;;;4.97;;
18320;SDS011;54904;54.350;18.664;2022-10-17T13:05:13;8.77;;;6.32;;
18320;SDS011;54904;54.350;18.664;2022-10-17T13:07:44;8.77;;;5.95;;
18320;SDS011;54904;54.350;18.664;2022-10-17T13:10:20;8.82;;;5.88;;
18320;SDS011;54904;54.350;18.664;2022-10-17T13:12:49;6.82;;;5.93;;
18320;SDS011;54904;54.350;18.664;2022-10-17T13:15:18;7.90;;;6.00;;
18320;SDS011;54904;54.350;18.664;2022-10-17T13:17:54;6.38;;;5.28;;
18320;SDS011;54904;54.350;18.664;2022-10-17T13:20:23;5.25;;;4.70;;
18320;SDS011;54904;54.350;18.664;2022-10-17T13:22:52;7.65;;;5.18;;
18320;SDS011;54904;54.350;18.664;2022-10-17T13:25:23;6.82;;;4.80;;
18320;SDS011;54904;54.350;18.664;2022-10-17T13:28:02;8.35;;;3.97;;
18320;SDS011;54904;54.350;18.664;2022-10-17T13:30:36;4.78;;;3.85;;
18320;SDS011;54904;54.350;18.664;2022-10-17T13:33:14;3.40;;;3.10;;
18320;SDS011;54904;54.350;18.664;2022-10-17T13:35:47;4.10;;;3.70;;
18320;SDS011;54904;54.350;18.664;2022-10-17T13:38:14;3.30;;;3.03;;
18320;SDS011;54904;54.350;18.664;2022-10-17T13:40:44;6.25;;;4.82;;
18320;SDS011;54904;54.350;18.664;2022-10-17T13:43:12;6.35;;;5.10;;
18320;SDS011;54904;54.350;18.664;2022-10-17T13:45:44;6.20;;;5.07;;
18320;SDS011;54904;54.350;18.664;2022-10-17T13:48:17;5.57;;;4.28;;
18320;SDS011;54904;54.350;18.664;2022-10-17T13:50:48;6.35;;;4.60;;
18320;SDS011;54904;54.350;18.664;2022-10-17T13:53:18;6.68;;;5.10;;
18320;SDS011;54904;54.350;18.664;2022-10-17T13:55:53;4.13;;;3.72;;
18320;SDS011;54904;54.350;18.664;2022-10-17T13:58:44;7.40;;;5.28;;
18320;SDS011;54904;54.350;18.664;2022-10-17T14:01:16;6.88;;;4.65;;
18320;SDS011;54904;54.350;18.664;2022-10-17T14:03:44;4.70;;;4.30;;
18320;SDS011;54904;54.350;18.664;2022-10-17T14:06:30;4.97;;;4.45;;
18320;SDS011;54904;54.350;18.664;2022-10-17T14:08:58;5.72;;;4.50;;
18320;SDS011;54904;54.350;18.664;2022-10-17T14:11:33;12.07;;;5.25;;
18320;SDS011;54904;54.350;18.664;2022-10-17T14:14:02;7.30;;;5.35;;
18320;SDS011;54904;54.350;18.664;2022-10-17T14:16:34;7.28;;;5.07;;
18320;SDS011;54904;54.350;18.664;2022-10-17T14:19:03;7.32;;;5.22;;
18320;SDS011;54904;54.350;18.664;2022-10-17T14:21:31;10.55;;;5.20;;
18320;SDS011;54904;54.350;18.664;2022-10-17T14:24:12;7.47;;;5.55;;
18320;SDS011;54904;54.350;18.664;2022-10-17T14:26:49;7.05;;;5.32;;
18320;SDS011;54904;54.350;18.664;2022-10-17T14:29:20;8.63;;;5.93;;
18320;SDS011;54904;54.350;18.664;2022-10-17T14:31:49;7.80;;;5.90;;
18320;SDS011;54904;54.350;18.664;2022-10-17T14:34:23;8.73;;;4.88;;
18320;SDS011;54904;54.350;18.664;2022-10-17T14:36:54;7.68;;;5.50;;
18320;SDS011;54904;54.350;18.664;2022-10-17T14:39:22;11.43;;;6.15;;
18320;SDS011;54904;54.350;18.664;2022-10-17T14:41:51;8.90;;;5.95;;
18320;SDS011;54904;54.350;18.664;2022-10-17T14:44:24;6.57;;;5.80;;
18320;SDS011;54904;54.350;18.664;2022-10-17T14:46:55;9.52;;;5.55;;
18320;SDS011;54904;54.350;18.664;2022-10-17T14:49:27;8.68;;;5.47;;
18320;SDS011;54904;54.350;18.664;2022-10-17T14:52:08;7.47;;;5.97;;
18320;SDS011;54904;54.350;18.664;2022-10-17T14:54:54;7.28;;;5.10;;
18320;SDS011;54904;54.350;18.664;2022-10-17T14:57:24;8.88;;;5.60;;
18320;SDS011;54904;54.350;18.664;2022-10-17T14:59:53;7.70;;;5.18;;
18320;SDS011;54904;54.350;18.664;2022-10-17T15:02:21;6.13;;;5.38;;
18320;SDS011;54904;54.350;18.664;2022-10-17T15:04:49;6.32;;;5.07;;
18320;SDS011;54904;54.350;18.664;2022-10-17T15:07:16;6.90;;;5.57;;
18320;SDS011;54904;54.350;18.664;2022-10-17T15:09:46;8.05;;;5.47;;
18320;SDS011;54904;54.350;18.664;2022-10-17T15:12:15;7.22;;;5.20;;
18320;SDS011;54904;54.350;18.664;2022-10-17T15:14:45;7.00;;;5.53;;
18320;SDS011;54904;54.350;18.664;2022-10-17T15:17:14;7.22;;;5.60;;
18320;SDS011;54904;54.350;18.664;2022-10-17T15:19:45;6.13;;;5.22;;
18320;SDS011;54904;54.350;18.664;2022-10-17T15:22:12;8.23;;;5.70;;
18320;SDS011;54904;54.350;18.664;2022-10-17T15:24:40;6.28;;;5.18;;
18320;SDS011;54904;54.350;18.664;2022-10-17T15:27:09;6.28;;;4.82;;
18320;SDS011;54904;54.350;18.664;2022-10-17T15:29:40;5.68;;;4.63;;
18320;SDS011;54904;54.350;18.664;2022-10-17T15:32:09;8.70;;;5.10;;
18320;SDS011;54904;54.350;18.664;2022-10-17T15:34:36;8.98;;;5.78;;